Lyford, Texas
Current Conditions -  °F | °C
As of 12:34 AM on Monday 24 Nov 2014 (Local Time) from KHRL Reporting Station
Moderate Fog Moderate Fog  
Wind Chill: 61°   Ceiling: 100
Heat Index: 61°   Visibility: 0.25mi
Dew Point: 61°   Wind: 0mph
Humidity: 100%   Direction: NA
Pressure: 29.75"   Gusts: NA
Location:  26.41°N, 97.79°W
Report Text: KHRL 240634Z 00000KT 1/4SM FG VV001 16/16 A2975 RMK AO2
Loading
Personal Weather Stations






























Interactive Weather Map New forecast layout! Learn more

10-Day Weather Forecast

Advertisements
Track Severe Weather on mobile